Time;durP1;ratioP1;P1;durP2;ratioP2;P2;SDS_P1;SDS_P2;PMS_P1;PMS_P2;Temp;Humidity;BMP_temperature;BMP_pressure;BME280_temperature;BME280_humidity;BME280_pressure;Samples;Min_cycle;Max_cycle;Signal;HPM_P1;HPM_P2
2022/08/13 00:01:49;;;;;;;5.88;2.92;;;;;;;14.63;63.35;98864.78;4186865;28;20127;-69
2022/08/13 00:03:55;;;;;;;3.42;3.13;;;;;;;14.59;63.40;98861.22;4187185;28;20530;-69
2022/08/13 00:05:55;;;;;;;6.35;3.05;;;;;;;14.59;63.05;98855.63;4187882;28;20644;-69
2022/08/13 00:07:55;;;;;;;3.63;3.33;;;;;;;14.57;63.83;98855.25;4188078;28;20072;-69
2022/08/13 00:09:59;;;;;;;6.60;3.22;;;;;;;14.55;63.72;98855.63;4186838;28;20074;-69
2022/08/13 00:14:22;;;;;;;6.07;3.72;;;;;;;14.55;63.63;98852.03;4187670;28;20071;-69
2022/08/13 00:16:22;;;;;;;5.38;4.43;;;;;;;14.51;64.58;98856.81;4186821;28;20041;-69
2022/08/13 00:18:24;;;;;;;5.35;3.30;;;;;;;14.54;63.08;98850.44;4186700;28;20456;-69
2022/08/13 00:20:31;;;;;;;4.32;3.92;;;;;;;14.62;62.61;98854.84;4187400;28;20032;-69
2022/08/13 00:22:32;;;;;;;4.05;3.45;;;;;;;14.67;62.29;98857.25;4187771;28;20131;-69
2022/08/13 00:24:33;;;;;;;5.68;4.18;;;;;;;14.69;62.83;98852.06;4187147;28;20476;-69
2022/08/13 00:26:33;;;;;;;4.63;3.78;;;;;;;14.69;63.33;98856.84;4188154;28;20326;-69
2022/08/13 00:28:35;;;;;;;4.32;3.80;;;;;;;14.58;63.82;98852.06;4186316;28;20049;-69
2022/08/13 00:30:38;;;;;;;6.78;3.80;;;;;;;14.50;63.73;98852.44;4188076;28;20476;-69
2022/08/13 00:32:38;;;;;;;5.30;4.65;;;;;;;14.41;64.24;98852.78;4186214;28;20063;-69
2022/08/13 00:34:39;;;;;;;3.53;3.13;;;;;;;14.28;64.04;98849.56;4188249;28;20168;-69
2022/08/13 00:36:39;;;;;;;5.82;3.53;;;;;;;14.23;63.51;98843.59;4186986;28;20055;-69
2022/08/13 00:38:44;;;;;;;3.75;3.30;;;;;;;14.14;63.94;98845.94;4187263;28;20049;-69
2022/08/13 00:40:48;;;;;;;5.22;3.30;;;;;;;14.10;63.33;98851.50;4186380;28;20048;-69
2022/08/13 00:42:50;;;;;;;4.95;3.20;;;;;;;14.06;63.69;98840.34;4188029;28;20124;-69
2022/08/13 00:44:51;;;;;;;4.35;3.60;;;;;;;13.98;64.10;98837.94;4186180;28;20070;-69
2022/08/13 00:48:41;;;;;;;3.67;3.38;;;;;;;14.01;62.41;98846.31;4187357;28;20433;-69
2022/08/13 00:49:13;;;;;;;5.88;3.60;;;;;;;14.01;62.65;98843.53;4183793;28;20040;-69
2022/08/13 00:51:16;;;;;;;4.50;3.25;;;;;;;13.96;62.78;98846.69;4187613;28;20491;-69
2022/08/13 00:53:17;;;;;;;;;;;;;;;13.92;63.68;98839.53;4186633;28;20045;-69
2022/08/13 00:55:20;;;;;;;4.07;3.30;;;;;;;13.73;64.29;98841.41;4186404;28;20353;-69
2022/08/13 00:57:20;;;;;;;6.70;3.33;;;;;;;13.60;64.59;98842.97;4187382;28;20048;-69
2022/08/13 00:59:20;;;;;;;5.72;3.20;;;;;;;13.58;65.02;98844.53;4185406;28;20123;-69
2022/08/13 01:01:25;;;;;;;3.78;3.40;;;;;;;13.51;65.03;98850.84;4187031;28;20074;-69
2022/08/13 01:03:29;;;;;;;4.55;3.20;;;;;;;13.46;64.91;98852.00;4186750;28;20044;-69
2022/08/13 01:05:30;;;;;;;4.53;3.60;;;;;;;13.41;65.25;98843.25;4187061;28;20044;-69
2022/08/13 01:07:31;;;;;;;5.05;3.53;;;;;;;13.35;65.04;98842.81;4186072;28;20382;-69
2022/08/13 01:09:31;;;;;;;3.13;2.83;;;;;;;13.31;64.99;98847.53;4185854;28;20037;-69
2022/08/13 01:11:34;;;;;;;5.63;3.47;;;;;;;13.29;66.05;98849.13;4185892;28;20135;-69
2022/08/13 01:13:38;;;;;;;5.45;3.72;;;;;;;13.23;66.18;98854.22;4185186;28;20036;-69
2022/08/13 01:15:40;;;;;;;3.50;3.20;;;;;;;13.23;65.77;98856.22;4187038;28;20665;-69
2022/08/13 01:17:41;;;;;;;3.83;3.40;;;;;;;13.15;65.87;98858.91;4187107;28;20052;-69
2022/08/13 01:19:44;;;;;;;4.30;3.20;;;;;;;13.13;66.31;98852.16;4185227;28;20036;-69
2022/08/13 01:21:50;;;;;;;6.25;3.30;;;;;;;13.10;66.36;98847.38;4185105;28;20136;-69
2022/08/13 01:23:53;;;;;;;4.15;3.53;;;;;;;13.09;66.42;98848.56;4186264;28;20434;-69
2022/08/13 01:25:54;;;;;;;4.32;3.80;;;;;;;13.13;64.98;98850.19;4186384;28;21177;-69
2022/08/13 01:27:55;;;;;;;4.57;3.83;;;;;;;13.18;64.67;98851.81;4187273;28;20079;-69
2022/08/13 01:29:56;;;;;;;7.78;5.60;;;;;;;13.11;65.67;98844.22;4186102;28;20040;-69
2022/08/13 01:31:57;;;;;;;9.15;4.93;;;;;;;13.07;66.73;98856.47;4186470;28;20055;-69
2022/08/13 01:33:59;;;;;;;7.53;4.00;;;;;;;13.02;66.64;98849.31;4184982;28;20033;-69
2022/08/13 01:36:01;;;;;;;5.00;3.65;;;;;;;12.97;67.10;98843.31;4187033;28;20032;-69
2022/08/13 01:38:02;;;;;;;4.68;3.80;;;;;;;12.98;65.96;98853.22;4186433;28;20045;-69
2022/08/13 01:40:04;;;;;;;5.88;4.10;;;;;;;12.97;67.87;98852.44;4186067;28;20020;-69
2022/08/13 01:42:12;;;;;;;4.95;3.90;;;;;;;12.98;69.23;98842.91;4186183;28;20101;-69
2022/08/13 01:44:14;;;;;;;6.93;4.15;;;;;;;12.97;70.00;98848.84;4185947;28;20047;-69
2022/08/13 01:46:15;;;;;;;;;;;;;;;12.94;69.63;98842.91;4186090;28;20418;-69
2022/08/13 01:50:35;;;;;;;4.65;4.25;;;;;;;12.87;69.76;98831.72;4186001;28;20384;-69
2022/08/13 01:52:40;;;;;;;4.67;3.90;;;;;;;12.82;69.75;98834.06;4186289;28;20033;-69
2022/08/13 01:54:41;;;;;;;6.80;3.90;;;;;;;12.77;69.60;98832.44;4185174;28;20040;-69
2022/08/13 01:56:42;;;;;;;5.75;3.50;;;;;;;12.74;69.37;98835.19;4186101;28;20218;-69
2022/08/13 01:58:47;;;;;;;6.90;3.80;;;;;;;12.68;69.27;98839.50;4185348;28;20048;-69
2022/08/13 02:00:51;;;;;;;4.68;3.90;;;;;;;12.59;69.69;98842.59;4185762;28;20082;-69
2022/08/13 02:02:51;;;;;;;5.18;3.70;;;;;;;12.51;69.68;98835.38;4184458;28;20048;-69
2022/08/13 02:04:52;;;;;;;4.93;3.88;;;;;;;12.46;69.80;98836.53;4183782;28;20080;-69
2022/08/13 02:06:54;;;;;;;4.00;3.60;;;;;;;12.40;69.81;98828.91;4186110;28;20055;-69
2022/08/13 02:08:58;;;;;;;6.95;4.15;;;;;;;12.42;69.99;98834.91;4183714;28;20052;-69
2022/08/13 02:10:58;;;;;;;5.38;3.67;;;;;;;12.47;69.25;98834.53;4185710;28;20392;-69
2022/08/13 02:12:59;;;;;;;4.45;3.65;;;;;;;12.48;69.69;98836.13;4185033;28;20052;-68
2022/08/13 02:15:01;;;;;;;5.35;4.40;;;;;;;12.42;70.33;98832.13;4186393;28;20140;-69
2022/08/13 02:17:24;;;;;;;5.32;3.78;;;;;;;12.35;70.25;98825.31;4185923;28;20045;-69
2022/08/13 02:19:25;;;;;;;4.32;3.80;;;;;;;12.40;68.46;98817.81;4184849;28;20060;-69
2022/08/13 02:21:25;;;;;;;4.28;3.83;;;;;;;12.38;69.46;98815.44;4185490;28;20727;-69
2022/08/13 02:23:31;;;;;;;5.00;3.85;;;;;;;12.43;69.66;98817.88;4186449;28;20563;-69
2022/08/13 02:25:34;;;;;;;5.00;4.50;;;;;;;12.43;69.89;98819.84;4185803;28;20102;-69
2022/08/13 02:27:34;;;;;;;3.92;3.53;;;;;;;12.41;70.12;98811.88;4185883;28;20063;-69
2022/08/13 02:29:35;;;;;;;4.18;3.78;;;;;;;12.38;70.00;98812.66;4184788;28;20295;-69
2022/08/13 02:31:36;;;;;;;5.85;3.97;;;;;;;12.34;69.56;98820.16;4186600;28;20570;-69
2022/08/13 02:33:37;;;;;;;7.85;3.97;;;;;;;12.29;70.04;98818.53;4184469;28;20063;-69
2022/08/13 02:35:37;;;;;;;5.18;4.45;;;;;;;12.20;70.64;98817.25;4184731;28;20044;-68
2022/08/13 02:37:38;;;;;;;3.88;3.38;;;;;;;12.15;70.71;98812.81;4185056;28;20401;-69
2022/08/13 02:39:38;;;;;;;5.80;4.30;;;;;;;12.13;70.19;98812.41;4184774;28;20427;-69
2022/08/13 02:41:40;;;;;;;5.40;4.30;;;;;;;12.19;68.55;98810.91;4185651;28;20078;-68
2022/08/13 02:43:42;;;;;;;5.78;4.40;;;;;;;12.27;68.00;98804.25;4185268;28;20047;-69
2022/08/13 02:45:46;;;;;;;4.28;3.88;;;;;;;12.25;68.79;98812.16;4186281;28;20558;-69
2022/08/13 02:47:48;;;;;;;5.28;3.85;;;;;;;12.23;69.35;98814.50;4185162;28;20488;-69
2022/08/13 02:49:51;;;;;;;5.33;4.37;;;;;;;12.25;70.87;98800.25;4184520;28;20041;-68
2022/08/13 02:51:51;;;;;;;4.97;4.47;;;;;;;12.33;71.25;98810.25;4184219;28;20278;-69
2022/08/13 02:53:53;;;;;;;5.38;4.80;;;;;;;12.44;71.71;98808.38;4185963;28;20043;-69
2022/08/13 02:55:53;;;;;;;5.13;4.10;;;;;;;12.53;70.91;98810.81;4185879;28;20328;-68
2022/08/13 02:57:53;;;;;;;5.13;4.63;;;;;;;12.59;70.96;98809.31;4185632;28;20119;-69
2022/08/13 02:59:54;;;;;;;6.35;4.63;;;;;;;12.65;69.89;98813.28;4184767;28;20080;-69
2022/08/13 03:01:55;;;;;;;5.13;4.63;;;;;;;12.72;69.68;98807.00;4184426;28;20060;-69
2022/08/13 03:03:56;;;;;;;6.80;4.28;;;;;;;12.77;68.00;98818.56;4184642;28;20051;-69
2022/08/13 03:05:57;;;;;;;4.10;3.70;;;;;;;12.84;66.60;98818.63;4177558;28;20439;-69
2022/08/13 03:07:58;;;;;;;8.57;4.45;;;;;;;12.91;66.17;98815.13;4180738;28;20037;-68
2022/08/13 03:09:58;;;;;;;5.82;4.22;;;;;;;12.87;66.65;98812.28;4178269;28;20049;-68
2022/08/13 03:12:02;;;;;;;7.63;4.57;;;;;;;12.79;67.18;98830.06;4182592;28;20048;-69
2022/08/13 03:14:09;;;;;;;5.63;4.47;;;;;;;12.58;68.42;98825.16;4182766;28;20123;-69
2022/08/13 03:16:15;;;;;;;5.28;4.40;;;;;;;12.48;68.24;98830.59;4183636;28;20134;-68
2022/08/13 03:18:16;;;;;;;5.85;3.85;;;;;;;12.42;68.60;98832.13;4186795;28;20769;-69
2022/08/13 03:20:17;;;;;;;5.00;4.50;;;;;;;12.29;69.72;98829.63;4185087;28;20486;-69
2022/08/13 03:22:17;;;;;;;5.63;4.13;;;;;;;12.15;70.74;98828.66;4183692;28;20058;-69
2022/08/13 03:24:20;;;;;;;5.78;4.35;;;;;;;11.99;71.11;98828.88;4187712;28;20453;-69
2022/08/13 03:26:21;;;;;;;5.60;4.30;;;;;;;11.90;70.86;98826.41;4187066;28;20048;-69
2022/08/13 03:28:23;;;;;;;6.78;4.68;;;;;;;11.81;70.68;98828.69;4185476;28;20485;-69
2022/08/13 03:30:24;;;;;;;6.80;4.60;;;;;;;11.72;71.46;98830.91;4186012;28;20072;-68
2022/08/13 03:32:25;;;;;;;4.93;4.20;;;;;;;11.63;71.92;98828.44;4186544;28;20032;-69
2022/08/13 03:34:25;;;;;;;6.25;4.55;;;;;;;11.57;71.86;98832.69;4182631;28;20127;-69
2022/08/13 03:36:27;;;;;;;6.95;4.10;;;;;;;11.52;71.72;98842.16;4188181;28;20041;-68
2022/08/13 03:38:27;;;;;;;7.25;4.32;;;;;;;11.42;72.40;98830.91;4185946;28;20040;-68
2022/08/13 03:41:00;;;;;;;9.00;5.03;;;;;;;11.39;71.95;98838.00;4183065;28;20037;-69
2022/08/13 03:42:52;;;;;;;;;;;;;;;11.44;71.12;98834.13;4185555;28;20156;-68
2022/08/13 03:44:54;;;;;;;8.10;4.50;;;;;;;11.42;72.03;98828.97;4186606;28;20286;-68
2022/08/13 03:46:54;;;;;;;6.60;4.57;;;;;;;11.40;71.81;98841.56;4183284;28;20049;-68
2022/08/13 03:48:55;;;;;;;9.43;5.38;;;;;;;11.37;72.53;98828.47;4185608;28;20404;-68
2022/08/13 03:51:00;;;;;;;9.00;4.80;;;;;;;11.39;73.54;98834.44;4184244;28;20495;-68
2022/08/13 03:53:02;;;;;;;7.63;4.70;;;;;;;11.38;72.90;98828.09;4185158;28;20055;-69
2022/08/13 03:55:08;;;;;;;15.23;5.25;;;;;;;11.44;71.65;98828.59;4186076;28;20067;-68
2022/08/13 03:57:09;;;;;;;11.80;5.32;;;;;;;11.49;71.90;98825.47;4184101;28;20041;-68
2022/08/13 03:59:10;;;;;;;16.23;6.22;;;;;;;11.46;71.76;98824.25;4183094;28;20462;-68
2022/08/13 04:01:10;;;;;;;11.63;5.10;;;;;;;11.42;72.52;98823.44;4186230;28;20044;-68
2022/08/13 04:03:19;;;;;;;8.90;5.07;;;;;;;11.36;72.65;98822.16;4185275;28;20155;-69
2022/08/13 04:05:19;;;;;;;6.15;5.32;;;;;;;11.35;72.62;98819.75;4186740;28;20072;-68
2022/08/13 04:07:20;;;;;;;6.03;4.38;;;;;;;11.38;71.91;98814.25;4186679;28;20117;-68
2022/08/13 04:09:20;;;;;;;6.32;4.38;;;;;;;11.44;71.88;98826.63;4184436;28;20120;-68
2022/08/13 04:11:22;;;;;;;6.93;4.88;;;;;;;11.35;74.40;98825.31;4184667;28;20048;-68
2022/08/13 04:13:28;;;;;;;5.80;4.30;;;;;;;11.33;72.52;98822.88;4185243;28;20063;-68
2022/08/13 04:15:28;;;;;;;7.57;4.60;;;;;;;11.25;73.67;98823.94;4182612;28;20102;-68
2022/08/13 04:17:29;;;;;;;7.28;4.35;;;;;;;11.25;74.01;98824.78;4185251;28;20044;-68
2022/08/13 04:19:32;;;;;;;11.93;4.65;;;;;;;11.14;75.00;98823.00;4185469;28;20067;-68
2022/08/13 04:21:33;;;;;;;;;;;;;;;11.07;76.20;98814.59;4185198;28;20313;-68
2022/08/13 04:23:39;;;;;;;5.55;4.80;;;;;;;11.03;76.03;98814.56;4184458;28;19916;-68
2022/08/13 04:25:42;;;;;;;10.57;4.80;;;;;;;11.03;75.94;98827.59;4185341;28;20043;-68
2022/08/13 04:27:43;;;;;;;6.38;4.85;;;;;;;11.03;75.48;98814.56;4184154;28;20037;-68
2022/08/13 04:29:43;;;;;;;5.07;4.57;;;;;;;11.05;76.52;98817.75;4185155;28;20093;-68
2022/08/13 04:31:45;;;;;;;7.78;4.57;;;;;;;11.06;76.97;98816.56;4184521;28;20139;-68
2022/08/13 04:33:45;;;;;;;8.77;4.68;;;;;;;11.09;74.82;98818.59;4184243;28;20440;-68
2022/08/13 04:35:46;;;;;;;7.10;4.57;;;;;;;11.13;75.31;98821.41;4184629;28;20186;-68
2022/08/13 04:37:46;;;;;;;5.45;4.63;;;;;;;11.16;75.70;98824.22;4187631;28;20047;-68
2022/08/13 04:39:48;;;;;;;5.40;4.28;;;;;;;11.19;75.09;98822.69;4184947;28;20064;-68
2022/08/13 04:41:48;;;;;;;5.53;4.80;;;;;;;11.23;74.53;98818.00;4184685;28;20257;-68
2022/08/13 04:43:48;;;;;;;5.50;4.38;;;;;;;11.27;74.85;98821.63;4185933;28;20772;-68
2022/08/13 04:45:49;;;;;;;7.80;5.40;;;;;;;11.31;77.34;98816.91;4184094;28;20076;-69
2022/08/13 04:47:49;;;;;;;8.93;5.20;;;;;;;11.41;75.44;98818.25;4184569;28;20123;-69
2022/08/13 04:49:50;;;;;;;10.70;4.78;;;;;;;11.52;74.99;98819.19;4185404;28;20044;-69
2022/08/13 04:51:50;;;;;;;10.18;5.05;;;;;;;11.63;75.25;98816.56;4184415;28;20036;-69
2022/08/13 04:53:51;;;;;;;9.77;5.43;;;;;;;11.74;77.42;98826.59;4184928;28;20036;-70
2022/08/13 04:55:53;;;;;;;8.07;6.00;;;;;;;11.77;77.35;98825.06;4186453;28;20037;-69
2022/08/13 04:57:53;;;;;;;7.27;4.93;;;;;;;11.79;76.86;98831.00;4186160;28;20037;-69
2022/08/13 04:59:55;;;;;;;6.70;4.50;;;;;;;11.87;75.69;98832.72;4183373;28;20040;-69
2022/08/13 05:01:55;;;;;;;8.27;5.03;;;;;;;11.94;75.56;98837.56;4184933;28;20045;-69
2022/08/13 05:03:56;;;;;;;8.50;5.00;;;;;;;12.03;76.24;98844.41;4182931;28;20032;-69
2022/08/13 05:05:56;;;;;;;5.90;4.90;;;;;;;12.07;75.62;98848.00;4186065;28;20048;-69
2022/08/13 05:07:57;;;;;;;7.40;5.07;;;;;;;12.09;74.82;98839.31;4186760;28;20080;-69
2022/08/13 05:09:57;;;;;;;5.72;4.68;;;;;;;12.08;73.98;98840.47;4185545;28;20552;-70
2022/08/13 05:11:58;;;;;;;7.88;4.53;;;;;;;12.15;71.75;98840.56;4185338;28;20127;-69
2022/08/13 05:13:59;;;;;;;7.63;4.65;;;;;;;12.26;71.36;98846.25;4185149;28;20033;-69
2022/08/13 05:16:02;;;;;;;5.10;4.53;;;;;;;12.29;71.36;98840.72;4186870;28;20044;-69
2022/08/13 05:18:03;;;;;;;5.80;5.25;;;;;;;12.36;71.22;98837.22;4184262;28;20037;-70
2022/08/13 05:20:04;;;;;;;6.50;4.70;;;;;;;12.41;71.39;98842.41;4184659;28;20350;-69
2022/08/13 05:22:05;;;;;;;6.45;4.60;;;;;;;12.44;70.58;98832.53;4186531;28;20082;-69
2022/08/13 05:24:06;;;;;;;5.97;4.68;;;;;;;12.53;70.27;98835.81;4186471;28;20032;-69
2022/08/13 05:26:07;;;;;;;7.25;4.70;;;;;;;12.61;70.28;98845.78;4186488;28;20429;-70
2022/08/13 05:28:08;;;;;;;6.77;5.07;;;;;;;12.69;69.75;98833.56;4185007;28;20473;-70
2022/08/13 05:30:12;;;;;;;7.05;4.97;;;;;;;12.79;69.86;98840.38;4186198;28;20263;-70
2022/08/13 05:32:12;;;;;;;5.57;4.90;;;;;;;12.86;70.94;98841.25;4185246;28;20405;-69
2022/08/13 05:34:13;;;;;;;5.90;5.35;;;;;;;12.94;70.01;98842.91;4185763;28;20111;-69
2022/08/13 05:36:13;;;;;;;5.90;4.70;;;;;;;12.99;70.83;98849.25;4184752;28;20383;-69
2022/08/13 05:38:16;;;;;;;5.70;4.82;;;;;;;13.05;69.87;98848.53;4186039;28;20069;-69
2022/08/13 05:40:16;;;;;;;7.07;4.88;;;;;;;13.11;68.68;98840.63;4184579;28;20451;-69
2022/08/13 05:42:21;;;;;;;8.27;5.32;;;;;;;13.21;68.95;98853.84;4185256;28;20040;-69
2022/08/13 05:44:22;;;;;;;6.38;5.00;;;;;;;13.28;70.04;98847.53;4184258;28;20147;-69
2022/08/13 05:46:25;;;;;;;6.32;5.70;;;;;;;13.32;71.38;98845.56;4184901;28;20056;-69
2022/08/13 05:48:27;;;;;;;6.32;4.78;;;;;;;13.36;71.26;98855.53;4185270;28;20147;-69
2022/08/13 05:50:28;;;;;;;7.95;5.60;;;;;;;13.37;69.92;98846.00;4186085;28;20409;-69
2022/08/13 05:52:30;;;;;;;6.38;5.28;;;;;;;13.43;70.20;98850.00;4179863;28;20091;-69
2022/08/13 05:54:31;;;;;;;8.45;5.18;;;;;;;13.48;70.92;98844.06;4129343;28;20891;-70
2022/08/13 05:56:35;;;;;;;5.28;4.78;;;;;;;13.55;70.84;98850.88;4184919;28;20130;-69
2022/08/13 05:58:35;;;;;;;7.47;5.03;;;;;;;13.65;69.10;98852.91;4183589;28;20093;-70
2022/08/13 06:05:15;;;;;;;12.35;5.20;;;;;;;13.88;71.08;98845.06;4185344;28;20087;-69
2022/08/13 06:07:19;;;;;;;7.40;5.40;;;;;;;13.94;71.47;98839.94;4184992;28;20657;-69
2022/08/13 06:09:20;;;;;;;8.65;5.65;;;;;;;14.01;70.92;98832.41;4184938;28;20400;-68
2022/08/13 06:11:20;;;;;;;9.00;5.50;;;;;;;14.12;70.88;98838.00;4186072;28;20059;-69
2022/08/13 06:13:20;;;;;;;10.25;6.00;;;;;;;14.23;69.24;98835.25;4185713;28;20048;-69
2022/08/13 06:15:22;;;;;;;9.75;5.55;;;;;;;14.33;69.24;98831.72;4185384;28;20127;-69
2022/08/13 06:17:23;;;;;;;15.27;6.20;;;;;;;14.46;69.67;98835.72;4185023;28;20589;-69
2022/08/13 06:19:25;;;;;;;7.90;4.75;;;;;;;14.58;68.03;98829.78;4183402;28;20245;-69
2022/08/13 06:21:27;;;;;;;10.10;5.70;;;;;;;14.71;68.03;98824.59;4183389;28;20055;-69
2022/08/13 06:23:30;;;;;;;5.13;4.63;;;;;;;14.82;66.67;98825.44;4185599;28;20040;-69
2022/08/13 06:25:32;;;;;;;7.65;5.43;;;;;;;14.93;67.52;98822.63;4184273;28;20044;-69
2022/08/13 06:27:32;;;;;;;8.88;5.10;;;;;;;15.02;68.11;98817.44;4184156;28;20570;-69
2022/08/13 06:29:40;;;;;;;9.55;5.93;;;;;;;15.13;67.83;98828.56;4184464;28;20066;-69
2022/08/13 06:31:40;;;;;;;7.22;5.47;;;;;;;15.23;67.73;98833.34;4183662;28;20519;-69
2022/08/13 06:33:41;;;;;;;6.20;5.15;;;;;;;15.33;67.22;98829.75;4185062;28;20040;-69
2022/08/13 06:35:41;;;;;;;8.10;5.60;;;;;;;15.43;66.85;98822.56;4185092;28;20108;-69
2022/08/13 06:37:41;;;;;;;9.13;4.80;;;;;;;15.54;66.01;98828.88;4183864;28;20476;-69
2022/08/13 06:39:44;;;;;;;5.82;4.95;;;;;;;15.63;65.87;98828.50;4183975;28;20044;-69
2022/08/13 06:41:45;;;;;;;6.75;5.75;;;;;;;15.78;66.90;98832.03;4184096;28;20048;-69
2022/08/13 06:43:52;;;;;;;12.35;5.53;;;;;;;15.89;65.89;98828.00;4183590;28;20056;-69
2022/08/13 06:45:55;;;;;;;4.93;4.43;;;;;;;15.99;65.06;98827.16;4176049;28;20132;-69
2022/08/13 06:47:57;;;;;;;6.00;4.82;;;;;;;16.08;63.87;98823.94;4175326;28;20137;-69
2022/08/13 06:49:59;;;;;;;;;;;;;;;16.19;64.09;98827.44;4185376;28;20044;-69
2022/08/13 06:52:01;;;;;;;5.13;4.63;;;;;;;16.31;63.53;98833.78;4183024;28;19924;-69
2022/08/13 06:54:01;;;;;;;6.07;5.13;;;;;;;16.51;63.20;98829.25;4184655;28;20397;-70
2022/08/13 06:56:08;;;;;;;5.88;4.65;;;;;;;16.66;63.09;98836.34;4184354;28;20263;-69
2022/08/13 06:58:10;;;;;;;5.28;4.78;;;;;;;16.86;62.54;98836.59;4184372;28;20566;-69
2022/08/13 07:00:11;;;;;;;6.20;4.60;;;;;;;17.00;61.96;98830.13;4184335;28;20295;-69
2022/08/13 07:02:16;;;;;;;5.18;4.68;;;;;;;17.16;61.05;98827.56;4182240;28;20044;-69
2022/08/13 07:04:20;;;;;;;5.35;4.53;;;;;;;17.25;60.71;98835.47;4183625;28;20040;-69
2022/08/13 07:06:28;;;;;;;8.10;4.80;;;;;;;17.39;60.31;98836.13;4183785;28;20398;-69
2022/08/13 07:08:30;;;;;;;6.15;4.80;;;;;;;17.48;60.13;98834.84;4182111;28;20652;-69
2022/08/13 07:10:32;;;;;;;4.80;4.30;;;;;;;17.52;60.02;98830.78;4183268;28;20734;-69
2022/08/13 07:12:33;;;;;;;4.63;4.07;;;;;;;17.64;59.19;98829.47;4183131;28;20102;-69
2022/08/13 07:14:33;;;;;;;4.10;3.70;;;;;;;17.71;58.88;98823.84;4183638;28;20041;-69
2022/08/13 07:16:34;;;;;;;6.78;4.68;;;;;;;17.85;58.04;98828.44;4184934;28;20048;-69
2022/08/13 07:18:35;;;;;;;4.25;3.47;;;;;;;17.93;57.74;98830.75;4184393;28;20281;-69
2022/08/13 07:20:36;;;;;;;6.05;4.18;;;;;;;18.12;57.18;98834.94;4184862;28;20036;-69
2022/08/13 07:22:36;;;;;;;4.78;4.10;;;;;;;18.24;55.92;98827.97;4185539;28;20440;-69
2022/08/13 07:24:37;;;;;;;5.07;3.58;;;;;;;18.34;56.23;98837.41;4183410;28;20041;-69
2022/08/13 07:26:38;;;;;;;4.55;3.80;;;;;;;18.40;55.91;98838.53;4182689;28;20045;-69
2022/08/13 07:28:40;;;;;;;5.50;3.30;;;;;;;18.40;55.38;98825.31;4184284;28;20037;-69
2022/08/13 07:30:45;;;;;;;6.63;3.65;;;;;;;18.44;55.67;98822.47;4185021;28;20121;-69
2022/08/13 07:32:46;;;;;;;4.68;3.90;;;;;;;18.51;55.66;98833.56;4185357;28;20507;-69
2022/08/13 07:34:46;;;;;;;3.85;3.50;;;;;;;18.57;54.60;98834.69;4184796;28;20052;-69
2022/08/13 07:36:49;;;;;;;5.07;3.80;;;;;;;18.71;55.22;98825.31;4182628;28;20411;-69
2022/08/13 07:38:51;;;;;;;7.82;4.03;;;;;;;18.91;54.32;98831.78;4184810;28;20435;-70
2022/08/13 07:40:55;;;;;;;9.57;4.45;;;;;;;19.00;53.72;98834.81;4184059;28;20473;-70
2022/08/13 07:42:58;;;;;;;4.65;3.75;;;;;;;19.08;53.53;98832.69;4185435;28;20052;-70
2022/08/13 07:44:59;;;;;;;5.28;3.60;;;;;;;19.16;53.45;98833.38;4183894;28;20114;-69
2022/08/13 07:47:00;;;;;;;4.10;3.30;;;;;;;19.20;53.29;98832.09;4185055;28;20074;-69
2022/08/13 07:49:01;;;;;;;4.47;3.28;;;;;;;19.22;53.59;98826.06;4182434;28;20080;-70
2022/08/13 07:51:03;;;;;;;5.88;3.60;;;;;;;19.30;53.03;98830.31;4183828;28;20041;-70
2022/08/13 07:53:05;;;;;;;4.28;3.53;;;;;;;19.39;53.20;98826.94;4183853;28;20056;-70
2022/08/13 07:55:07;;;;;;;7.88;3.47;;;;;;;19.41;52.84;98819.69;4182966;28;20052;-70
2022/08/13 07:57:10;;;;;;;4.10;3.42;;;;;;;19.49;52.60;98817.53;4184632;28;20048;-70
2022/08/13 07:59:12;;;;;;;6.25;3.67;;;;;;;19.55;52.64;98821.44;4183861;28;20055;-70
2022/08/13 08:01:13;;;;;;;3.90;3.50;;;;;;;19.60;52.63;98816.13;4188243;28;20135;-70
2022/08/13 08:03:14;;;;;;;5.88;3.80;;;;;;;19.85;52.34;98818.44;4186823;28;20132;-70
2022/08/13 08:05:15;;;;;;;3.75;3.15;;;;;;;20.08;51.42;98811.16;4187685;28;20121;-70
2022/08/13 08:07:15;;;;;;;4.68;3.70;;;;;;;20.30;50.91;98817.09;4187903;28;20045;-70
2022/08/13 08:09:19;;;;;;;5.55;3.50;;;;;;;20.44;50.06;98814.81;4186660;28;20066;-70
2022/08/13 08:13:40;;;;;;;6.22;3.80;;;;;;;20.64;49.71;98825.97;4186987;28;20059;-70
2022/08/13 08:15:44;;;;;;;5.20;3.50;;;;;;;20.70;49.70;98821.41;4185651;28;20052;-70
2022/08/13 08:17:45;;;;;;;7.68;3.55;;;;;;;20.74;49.46;98816.50;4185095;28;20044;-70
2022/08/13 08:19:50;;;;;;;6.20;3.92;;;;;;;20.84;49.32;98811.84;4185712;28;20067;-70
2022/08/13 08:21:51;;;;;;;5.47;3.50;;;;;;;21.00;49.05;98811.81;4188493;28;20465;-70
2022/08/13 08:23:58;;;;;;;3.95;3.55;;;;;;;21.02;48.41;98815.00;4188410;28;20052;-70
2022/08/13 08:26:07;;;;;;;3.58;3.22;;;;;;;21.06;49.27;98814.91;4187536;28;20044;-70
2022/08/13 08:28:09;;;;;;;4.05;2.97;;;;;;;21.08;48.88;98803.22;4187372;28;20048;-70
2022/08/13 08:30:13;;;;;;;;;;;;;;;21.24;48.24;98812.41;4186926;28;20032;-70
2022/08/13 08:32:14;;;;;;;5.00;3.78;;;;;;;21.37;47.36;98809.72;4186612;28;19916;-70
2022/08/13 08:34:17;;;;;;;6.15;2.92;;;;;;;21.48;47.19;98809.41;4187047;28;20445;-70
2022/08/13 08:36:17;;;;;;;4.10;3.38;;;;;;;21.56;47.23;98814.41;4187382;28;20024;-70
2022/08/13 08:43:00;;;;;;;6.68;3.53;;;;;;;21.79;46.85;98809.78;4186730;28;20194;-70
2022/08/13 08:45:03;;;;;;;5.25;3.30;;;;;;;21.87;46.99;98814.75;4187274;28;20084;-70
2022/08/13 08:47:05;;;;;;;3.67;3.38;;;;;;;22.00;46.91;98806.31;4184743;28;20056;-70
2022/08/13 08:49:07;;;;;;;4.55;3.20;;;;;;;22.21;46.04;98807.75;4186067;28;20589;-70
2022/08/13 08:51:08;;;;;;;3.50;3.20;;;;;;;22.37;46.17;98806.88;4185302;28;20477;-70
2022/08/13 08:53:23;;;;;;;6.68;3.47;;;;;;;22.54;45.79;98805.53;4185673;28;20222;-70
2022/08/13 08:55:24;;;;;;;6.63;3.55;;;;;;;22.78;45.03;98808.00;4186379;28;20174;-70
2022/08/13 08:57:25;;;;;;;6.38;3.67;;;;;;;22.87;44.29;98799.66;4186795;28;20044;-70
2022/08/13 08:59:27;;;;;;;5.95;3.55;;;;;;;23.01;44.37;98807.66;4187191;28;20043;-70
2022/08/13 09:01:33;;;;;;;3.63;3.33;;;;;;;22.99;44.03;98802.44;4186867;28;20056;-70
2022/08/13 09:03:39;;;;;;;7.30;3.60;;;;;;;23.03;43.70;98798.72;4187039;28;20044;-70
2022/08/13 09:05:40;;;;;;;5.10;3.45;;;;;;;23.05;43.63;98799.84;4187344;28;20040;-70
2022/08/13 09:07:46;;;;;;;8.55;3.63;;;;;;;23.08;43.54;98806.59;4185600;28;20404;-71
2022/08/13 09:09:50;;;;;;;5.13;3.45;;;;;;;23.09;43.88;98802.56;4185624;28;20079;-70
2022/08/13 09:11:55;;;;;;;3.78;3.38;;;;;;;23.23;43.68;98802.84;4187606;28;20491;-70
2022/08/13 09:13:55;;;;;;;6.18;3.38;;;;;;;23.37;43.62;98793.09;4186322;28;20059;-70
2022/08/13 09:15:58;;;;;;;5.40;3.35;;;;;;;23.54;42.96;98797.31;4187610;28;20060;-70
2022/08/13 09:17:59;;;;;;;5.32;3.30;;;;;;;23.61;42.92;98796.31;4184779;28;20044;-70
2022/08/13 09:20:00;;;;;;;3.60;3.22;;;;;;;23.86;42.98;98789.75;4186293;28;20072;-71
2022/08/13 09:22:00;;;;;;;4.30;3.65;;;;;;;23.98;41.78;98803.00;4186844;28;20052;-71
2022/08/13 09:24:01;;;;;;;6.20;3.05;;;;;;;24.02;41.68;98791.56;4186818;28;20049;-71
2022/08/13 09:26:04;;;;;;;7.15;3.53;;;;;;;23.99;41.93;98784.78;4185716;28;20047;-71
2022/08/13 09:28:07;;;;;;;3.92;3.25;;;;;;;24.03;42.79;98790.31;4187085;28;20479;-71
2022/08/13 09:30:08;;;;;;;4.43;3.10;;;;;;;24.10;42.76;98788.03;4185252;28;20151;-71
2022/08/13 09:32:09;;;;;;;6.10;3.72;;;;;;;24.29;42.61;98777.59;4182304;28;20133;-71
2022/08/13 09:34:10;;;;;;;5.63;3.25;;;;;;;24.43;41.53;98790.41;4184427;28;20028;-71
2022/08/13 09:36:10;;;;;;;4.38;3.33;;;;;;;24.48;42.12;98783.34;4185799;28;20118;-71
2022/08/13 09:38:11;;;;;;;4.80;3.40;;;;;;;24.56;41.70;98782.59;4186047;28;20075;-71
2022/08/13 09:40:12;;;;;;;6.85;3.35;;;;;;;24.63;40.71;98779.47;4183412;28;20456;-71
2022/08/13 09:42:18;;;;;;;4.03;3.33;;;;;;;24.54;40.86;98781.50;4184310;28;20028;-71
2022/08/13 09:44:18;;;;;;;4.03;3.42;;;;;;;24.53;41.35;98785.59;4185489;28;20016;-71
2022/08/13 09:46:23;;;;;;;3.72;3.42;;;;;;;24.77;40.56;98780.16;4186486;28;20033;-71
2022/08/13 09:48:27;;;;;;;11.00;3.30;;;;;;;24.87;40.62;98779.72;4185086;28;20036;-71
2022/08/13 09:50:28;;;;;;;5.40;3.28;;;;;;;24.81;39.82;98778.75;4186543;28;20047;-71
2022/08/13 09:52:28;;;;;;;4.68;3.13;;;;;;;24.93;40.09;98782.72;4186550;28;20469;-71